Time,TemperatureF,DewpointF,PressureIn,WindDirection,WindDirectionDegrees,WindSpeedMPH,WindSpeedGustMPH,Humidity,HourlyPrecipIn,Conditions,Clouds,dailyrainin,SoftwareType,DateUTC
2013-10-07 06:30:00,64.1,63.5,29.84,SSE,151,0.0,0.0,98,1.35,,---,1.35,VWS V14.01,2013-10-07 10:30:00,
2013-10-07 06:32:00,64.0,63.4,29.84,SSE,150,0.0,0.0,98,0.01,,---,1.36,VWS V14.01,2013-10-07 10:32:00,
2013-10-07 06:37:00,63.9,63.3,29.85,SSE,151,0.0,0.0,98,0.04,,---,1.39,VWS V14.01,2013-10-07 10:37:00,
2013-10-07 06:42:00,63.9,63.3,29.86,SW,224,0.0,0.0,98,0.07,,---,1.42,VWS V14.01,2013-10-07 10:42:00,
2013-10-07 06:47:00,63.8,63.2,29.85,ENE,57,2.0,2.0,98,0.11,,---,1.46,VWS V14.01,2013-10-07 10:47:00,
2013-10-07 06:52:00,63.8,63.2,29.85,ENE,58,0.0,1.0,98,0.11,,---,1.46,VWS V14.01,2013-10-07 10:52:00,
2013-10-07 06:57:00,63.7,63.1,29.85,ENE,58,0.0,1.0,98,0.12,,---,1.47,VWS V14.01,2013-10-07 10:57:00,
2013-10-07 07:02:00,63.8,63.2,29.85,ENE,58,0.0,0.0,98,0.14,,---,1.49,VWS V14.01,2013-10-07 11:02:00,
2013-10-07 07:07:00,63.8,63.2,29.84,ENE,58,0.0,0.0,98,0.15,,---,1.50,VWS V14.01,2013-10-07 11:07:00,
2013-10-07 07:12:00,63.7,63.1,29.84,ENE,58,0.0,0.0,98,0.15,,---,1.50,VWS V14.01,2013-10-07 11:12:00,
2013-10-07 07:17:00,63.7,63.1,29.84,ENE,58,0.0,0.0,98,0.16,,---,1.51,VWS V14.01,2013-10-07 11:17:00,
2013-10-07 07:22:00,63.7,63.1,29.84,ENE,58,0.0,0.0,98,0.17,,---,1.52,VWS V14.01,2013-10-07 11:22:00,
2013-10-07 07:27:00,63.7,63.1,29.83,ENE,58,0.0,1.0,98,0.19,,---,1.54,VWS V14.01,2013-10-07 11:27:00,
2013-10-07 07:32:00,63.7,63.1,29.84,ENE,58,0.0,0.0,98,0.19,,---,1.54,VWS V14.01,2013-10-07 11:32:00,
2013-10-07 07:37:00,63.7,63.1,29.84,SE,127,0.0,0.0,98,0.16,,---,1.55,VWS V14.01,2013-10-07 11:37:00,
2013-10-07 07:42:00,63.7,63.1,29.84,SE,127,0.0,0.0,98,0.14,,---,1.55,VWS V14.01,2013-10-07 11:42:00,
2013-10-07 07:47:00,63.7,63.1,29.85,SE,127,0.0,0.0,98,0.10,,---,1.55,VWS V14.01,2013-10-07 11:47:00,
2013-10-07 07:52:00,63.7,63.1,29.85,SE,129,0.0,1.0,98,0.09,,---,1.55,VWS V14.01,2013-10-07 11:52:00,
2013-10-07 07:58:00,63.7,63.1,29.84,SE,129,0.0,0.0,98,0.08,,---,1.55,VWS V14.01,2013-10-07 11:58:00,
2013-10-07 08:03:00,63.6,63.0,29.84,SE,129,0.0,0.0,98,0.06,,---,1.55,VWS V14.01,2013-10-07 12:03:00,
2013-10-07 08:08:00,63.7,63.1,29.83,SE,129,0.0,0.0,98,0.05,,---,1.55,VWS V14.01,2013-10-07 12:08:00,
2013-10-07 08:13:00,63.7,63.1,29.84,SE,129,0.0,0.0,98,0.05,,---,1.55,VWS V14.01,2013-10-07 12:13:00,
2013-10-07 08:18:00,63.6,63.0,29.85,SE,129,0.0,0.0,98,0.04,,---,1.55,VWS V14.01,2013-10-07 12:18:00,
2013-10-07 08:23:00,63.6,63.0,29.84,SE,127,0.0,1.0,98,0.04,,---,1.56,VWS V14.01,2013-10-07 12:23:00,
2013-10-07 08:28:00,63.7,63.1,29.82,SE,125,0.0,0.0,98,0.03,,---,1.57,VWS V14.01,2013-10-07 12:28:00,
2013-10-07 08:33:00,63.7,63.1,29.84,SSW,198,0.0,0.0,98,0.03,,---,1.57,VWS V14.01,2013-10-07 12:33:00,
2013-10-07 08:38:00,63.7,63.1,29.84,SSW,198,0.0,0.0,98,0.03,,---,1.58,VWS V14.01,2013-10-07 12:38:00,
2013-10-07 08:43:00,63.8,63.2,29.87,South,173,1.0,1.0,98,0.03,,---,1.58,VWS V14.01,2013-10-07 12:43:00,
2013-10-07 08:48:00,63.9,63.3,29.87,SSW,204,0.0,0.0,98,0.03,,---,1.58,VWS V14.01,2013-10-07 12:48:00,
2013-10-07 08:53:00,64.0,63.4,29.88,SE,126,0.0,0.0,98,0.03,,---,1.58,VWS V14.01,2013-10-07 12:53:00,
2013-10-07 08:58:00,64.1,63.5,29.88,SE,126,0.0,0.0,98,0.03,,---,1.58,VWS V14.01,2013-10-07 12:58:00,
2013-10-07 09:03:00,64.2,63.6,29.87,SE,145,0.0,1.0,98,0.04,,---,1.59,VWS V14.01,2013-10-07 13:03:00,
2013-10-07 09:08:00,64.2,63.6,29.87,SE,145,0.0,1.0,98,0.04,,---,1.59,VWS V14.01,2013-10-07 13:08:00,
2013-10-07 09:13:00,64.3,63.7,29.87,South,177,0.0,1.0,98,0.04,,---,1.59,VWS V14.01,2013-10-07 13:13:00,
2013-10-07 09:18:00,64.4,63.8,29.88,South,183,1.0,1.0,98,0.04,,---,1.59,VWS V14.01,2013-10-07 13:18:00,
2013-10-07 09:23:00,64.4,63.8,29.88,South,183,0.0,0.0,98,0.03,,---,1.59,VWS V14.01,2013-10-07 13:23:00,
2013-10-07 09:28:00,64.6,64.0,29.88,South,183,0.0,0.0,98,0.02,,---,1.59,VWS V14.01,2013-10-07 13:28:00,
2013-10-07 09:33:00,64.8,64.2,29.87,South,183,0.0,0.0,98,0.02,,---,1.59,VWS V14.01,2013-10-07 13:33:00,
2013-10-07 09:38:00,65.0,64.4,29.88,South,183,0.0,0.0,98,0.01,,---,1.59,VWS V14.01,2013-10-07 13:38:00,
2013-10-07 09:43:00,65.2,64.6,29.88,South,183,0.0,0.0,98,0.01,,---,1.59,VWS V14.01,2013-10-07 13:43:00,
2013-10-07 09:48:00,65.4,64.8,29.87,South,183,0.0,0.0,98,0.01,,---,1.59,VWS V14.01,2013-10-07 13:48:00,
2013-10-07 09:53:00,65.2,64.6,29.88,South,183,0.0,0.0,98,0.01,,---,1.59,VWS V14.01,2013-10-07 13:53:00,
2013-10-07 09:58:00,65.2,64.6,29.88,South,183,0.0,0.0,98,0.01,,---,1.59,VWS V14.01,2013-10-07 13:58:00,
2013-10-07 10:03:00,65.4,64.8,29.88,South,183,0.0,0.0,98,0.00,,---,1.59,VWS V14.01,2013-10-07 14:03:00,
2013-10-07 10:08:00,65.7,65.1,29.88,South,183,0.0,0.0,98,0.00,,---,1.59,VWS V14.01,2013-10-07 14:08:00,
2013-10-07 10:13:00,66.5,65.9,29.88,East,82,0.0,0.0,98,0.00,,---,1.59,VWS V14.01,2013-10-07 14:13:00,
2013-10-07 10:18:00,66.9,66.3,29.88,ENE,71,1.0,1.0,98,0.00,,---,1.59,VWS V14.01,2013-10-07 14:18:00,
2013-10-07 10:23:00,66.7,66.1,29.88,ENE,62,0.0,0.0,98,0.00,,---,1.59,VWS V14.01,2013-10-07 14:23:00,
2013-10-07 10:28:00,66.6,66.0,29.87,NE,53,0.0,1.0,98,0.00,,---,1.59,VWS V14.01,2013-10-07 14:28:00,
2013-10-07 10:33:00,66.7,66.1,29.88,NE,53,0.0,1.0,98,0.00,,---,1.59,VWS V14.01,2013-10-07 14:33:00,
2013-10-07 10:38:00,66.8,66.2,29.87,NNE,15,0.0,1.0,98,0.00,,---,1.59,VWS V14.01,2013-10-07 14:38:00,
2013-10-07 10:43:00,66.7,66.1,29.88,NE,56,1.0,1.0,98,0.00,,---,1.59,VWS V14.01,2013-10-07 14:43:00,
2013-10-07 10:48:00,66.8,66.2,29.88,ENE,57,1.0,1.0,98,0.00,,---,1.59,VWS V14.01,2013-10-07 14:48:00,
2013-10-07 10:53:00,66.9,66.3,29.87,NE,45,0.0,1.0,98,0.00,,---,1.59,VWS V14.01,2013-10-07 14:53:00,
2013-10-07 10:58:00,67.2,66.6,29.88,ENE,63,1.0,1.0,98,0.00,,---,1.59,VWS V14.01,2013-10-07 14:58:00,
2013-10-07 11:03:00,67.2,66.6,29.88,NNW,337,1.0,1.0,98,0.00,,---,1.59,VWS V14.01,2013-10-07 15:03:00,
2013-10-07 11:08:00,67.3,66.7,29.88,ENE,72,0.0,1.0,98,0.00,,---,1.59,VWS V14.01,2013-10-07 15:08:00,
2013-10-07 11:13:00,67.3,66.7,29.87,NW,312,1.0,1.0,98,0.00,,---,1.59,VWS V14.01,2013-10-07 15:13:00,
2013-10-07 11:18:00,67.1,66.5,29.87,SE,132,0.0,1.0,98,0.00,,---,1.59,VWS V14.01,2013-10-07 15:18:00,
2013-10-07 11:23:00,67.3,66.7,29.87,NNW,343,0.0,1.0,98,0.00,,---,1.59,VWS V14.01,2013-10-07 15:23:00,
2013-10-07 11:28:00,67.9,67.3,29.87,ESE,115,1.0,1.0,98,0.00,,---,1.59,VWS V14.01,2013-10-07 15:28:00,
2013-10-07 11:33:00,68.7,68.1,29.88,SSW,212,0.0,0.0,98,0.00,,---,1.59,VWS V14.01,2013-10-07 15:33:00,
2013-10-07 11:38:00,68.6,68.0,29.88,NE,52,1.0,3.0,98,0.00,,---,1.59,VWS V14.01,2013-10-07 15:38:00,
2013-10-07 11:43:00,69.4,68.8,29.88,ENE,68,0.0,1.0,98,0.00,,---,1.59,VWS V14.01,2013-10-07 15:43:00,
2013-10-07 11:48:00,69.7,69.1,29.88,WNW,289,0.0,2.0,98,0.00,,---,1.59,VWS V14.01,2013-10-07 15:48:00,
2013-10-07 11:53:00,69.5,68.6,29.88,West,269,1.0,2.0,97,0.00,,---,1.59,VWS V14.01,2013-10-07 15:53:00,
2013-10-07 11:58:00,68.8,67.9,29.88,ENE,74,1.0,1.0,97,0.00,,---,1.59,VWS V14.01,2013-10-07 15:58:00,
2013-10-07 12:03:00,68.4,67.2,29.88,NW,320,0.0,3.0,96,0.00,,---,1.59,VWS V14.01,2013-10-07 16:03:00,
2013-10-07 12:08:00,68.3,67.1,29.88,West,273,1.0,1.0,96,0.00,,---,1.59,VWS V14.01,2013-10-07 16:08:00,
2013-10-07 12:13:00,68.9,68.0,29.88,SE,127,2.0,2.0,97,0.00,,---,1.59,VWS V14.01,2013-10-07 16:13:00,
2013-10-07 12:18:00,69.3,68.1,29.88,NE,53,3.0,3.0,96,0.00,,---,1.59,VWS V14.01,2013-10-07 16:18:00,
2013-10-07 12:23:00,69.2,68.0,29.88,SSW,193,0.0,2.0,96,0.00,,---,1.59,VWS V14.01,2013-10-07 16:23:00,
2013-10-07 12:28:00,69.7,68.5,29.88,WSW,255,1.0,1.0,96,0.00,,---,1.59,VWS V14.01,2013-10-07 16:28:00,
2013-10-07 12:33:00,69.7,68.5,29.88,WNW,290,1.0,1.0,96,0.00,,---,1.59,VWS V14.01,2013-10-07 16:33:00,
2013-10-07 12:38:00,69.9,68.7,29.88,SSW,210,1.0,1.0,96,0.00,,---,1.59,VWS V14.01,2013-10-07 16:38:00,
2013-10-07 12:43:00,70.1,68.9,29.88,NE,42,1.0,2.0,96,0.00,,---,1.59,VWS V14.01,2013-10-07 16:43:00,
2013-10-07 12:48:00,70.5,69.3,29.88,SSE,147,0.0,0.0,96,0.00,,---,1.59,VWS V14.01,2013-10-07 16:48:00,
2013-10-07 12:53:00,70.5,69.3,29.88,SSE,154,0.0,1.0,96,0.00,,---,1.59,VWS V14.01,2013-10-07 16:53:00,
2013-10-07 12:58:00,70.3,68.8,29.88,NNW,340,0.0,1.0,95,0.00,,---,1.59,VWS V14.01,2013-10-07 16:58:00,
2013-10-07 13:03:00,70.1,68.6,29.88,SSE,160,2.0,3.0,95,0.00,,---,1.59,VWS V14.01,2013-10-07 17:03:00,
2013-10-07 13:08:00,70.2,68.7,29.88,East,101,0.0,1.0,95,0.00,,---,1.59,VWS V14.01,2013-10-07 17:08:00,
2013-10-07 13:13:00,70.6,69.1,29.88,SW,228,0.0,0.0,95,0.00,,---,1.59,VWS V14.01,2013-10-07 17:13:00,
2013-10-07 13:18:00,70.7,69.2,29.88,NE,49,1.0,3.0,95,0.00,,---,1.59,VWS V14.01,2013-10-07 17:18:00,
2013-10-07 13:23:00,70.8,69.3,29.88,NNW,335,0.0,1.0,95,0.00,,---,1.59,VWS V14.01,2013-10-07 17:23:00,
2013-10-07 13:28:00,70.2,68.7,29.88,ENE,59,1.0,1.0,95,0.00,,---,1.59,VWS V14.01,2013-10-07 17:28:00,
2013-10-07 13:33:00,69.4,67.6,29.88,NW,309,1.0,1.0,94,0.00,,---,1.59,VWS V14.01,2013-10-07 17:33:00,
2013-10-07 13:38:00,69.0,67.2,29.88,North,356,0.0,2.0,94,0.00,,---,1.59,VWS V14.01,2013-10-07 17:38:00,
2013-10-07 13:43:00,68.7,66.9,29.88,ESE,105,0.0,2.0,94,0.00,,---,1.59,VWS V14.01,2013-10-07 17:43:00,
2013-10-07 13:48:00,68.5,67.0,29.88,NW,308,0.0,1.0,95,0.00,,---,1.59,VWS V14.01,2013-10-07 17:48:00,
2013-10-07 13:53:00,68.7,67.2,29.88,ENE,58,0.0,1.0,95,0.00,,---,1.59,VWS V14.01,2013-10-07 17:53:00,
2013-10-07 13:58:00,68.8,67.6,29.88,ENE,58,0.0,1.0,96,0.00,,---,1.59,VWS V14.01,2013-10-07 17:58:00,
2013-10-07 14:03:00,68.4,66.9,29.88,East,98,4.0,4.0,95,0.00,,---,1.59,VWS V14.01,2013-10-07 18:03:00,
2013-10-07 14:08:00,67.8,66.0,29.88,NNW,347,0.0,1.0,94,0.00,,---,1.59,VWS V14.01,2013-10-07 18:08:00,
2013-10-07 14:13:00,67.9,66.4,29.88,ENE,71,1.0,3.0,95,0.00,,---,1.59,VWS V14.01,2013-10-07 18:13:00,
2013-10-07 14:18:00,67.7,66.2,29.88,NE,37,0.0,1.0,95,0.00,,---,1.59,VWS V14.01,2013-10-07 18:18:00,
2013-10-07 14:23:00,67.4,65.6,29.88,ENE,58,0.0,0.0,94,0.00,,---,1.59,VWS V14.01,2013-10-07 18:23:00,
2013-10-07 14:28:00,67.4,65.9,29.88,ENE,58,0.0,0.0,95,0.00,,---,1.59,VWS V14.01,2013-10-07 18:28:00,
2013-10-07 14:33:00,67.2,65.4,29.89,East,89,1.0,1.0,94,0.00,,---,1.59,VWS V14.01,2013-10-07 18:33:00,
2013-10-07 14:38:00,67.1,65.6,29.89,East,90,0.0,0.0,95,0.00,,---,1.59,VWS V14.01,2013-10-07 18:38:00,
2013-10-07 14:43:00,67.4,65.9,29.88,East,90,0.0,1.0,95,0.00,,---,1.59,VWS V14.01,2013-10-07 18:43:00,
2013-10-07 14:48:00,67.7,66.2,29.88,East,90,0.0,0.0,95,0.00,,---,1.59,VWS V14.01,2013-10-07 18:48:00,
2013-10-07 14:53:00,67.7,66.2,29.88,NNW,341,0.0,0.0,95,0.00,,---,1.59,VWS V14.01,2013-10-07 18:53:00,
2013-10-07 14:58:00,67.7,66.2,29.89,North,10,0.0,1.0,95,0.00,,---,1.59,VWS V14.01,2013-10-07 18:58:00,
2013-10-07 15:03:00,67.9,66.4,29.89,East,82,0.0,0.0,95,0.00,,---,1.59,VWS V14.01,2013-10-07 19:03:00,
2013-10-07 15:08:00,67.8,66.0,29.89,NE,55,1.0,1.0,94,0.00,,---,1.59,VWS V14.01,2013-10-07 19:08:00,
2013-10-07 15:13:00,67.7,65.9,29.89,North,10,1.0,3.0,94,0.00,,---,1.59,VWS V14.01,2013-10-07 19:13:00,
2013-10-07 15:18:00,67.3,65.5,29.89,North,11,1.0,2.0,94,0.00,,---,1.59,VWS V14.01,2013-10-07 19:18:00,
2013-10-07 15:23:00,67.0,65.2,29.89,NNE,27,0.0,1.0,94,0.00,,---,1.59,VWS V14.01,2013-10-07 19:23:00,
2013-10-07 15:28:00,66.5,64.4,29.89,NNE,29,1.0,2.0,93,0.00,,---,1.59,VWS V14.01,2013-10-07 19:28:00,
2013-10-07 15:33:00,66.2,63.8,29.90,North,359,1.0,2.0,92,0.00,,---,1.59,VWS V14.01,2013-10-07 19:33:00,
2013-10-07 15:38:00,65.9,63.8,29.90,ENE,77,0.0,1.0,93,0.00,,---,1.59,VWS V14.01,2013-10-07 19:38:00,
2013-10-07 15:43:00,66.0,63.0,29.90,NNE,27,0.0,1.0,90,0.00,,---,1.59,VWS V14.01,2013-10-07 19:43:00,
2013-10-07 15:48:00,66.7,61.4,29.90,NNW,345,1.0,1.0,83,0.00,,---,1.59,VWS V14.01,2013-10-07 19:48:00,
2013-10-07 15:53:00,67.2,59.8,29.90,NNW,328,1.0,1.0,77,0.00,,---,1.59,VWS V14.01,2013-10-07 19:53:00,
2013-10-07 15:58:00,67.6,58.7,29.90,North,349,1.0,1.0,73,0.00,,---,1.59,VWS V14.01,2013-10-07 19:58:00,
2013-10-07 16:03:00,67.8,58.1,29.90,NE,47,0.0,1.0,71,0.00,,---,1.59,VWS V14.01,2013-10-07 20:03:00,
2013-10-07 16:08:00,67.7,58.0,29.90,East,79,1.0,1.0,71,0.00,,---,1.59,VWS V14.01,2013-10-07 20:08:00,
2013-10-07 16:13:00,67.4,57.3,29.90,ENE,77,0.0,0.0,70,0.00,,---,1.59,VWS V14.01,2013-10-07 20:13:00,
2013-10-07 16:18:00,67.4,57.3,29.90,NNE,13,0.0,0.0,70,0.00,,---,1.59,VWS V14.01,2013-10-07 20:18:00,
2013-10-07 16:23:00,67.3,56.8,29.91,ENE,75,0.0,1.0,69,0.00,,---,1.59,VWS V14.01,2013-10-07 20:23:00,
2013-10-07 16:28:00,67.0,55.7,29.90,NNE,18,0.0,0.0,67,0.00,,---,1.59,VWS V14.01,2013-10-07 20:28:00,
2013-10-07 16:33:00,67.0,56.5,29.90,NNE,25,1.0,1.0,69,0.00,,---,1.59,VWS V14.01,2013-10-07 20:33:00,
2013-10-07 16:38:00,66.9,56.0,29.91,NE,52,0.0,1.0,68,0.00,,---,1.59,VWS V14.01,2013-10-07 20:38:00,
2013-10-07 16:43:00,67.0,56.1,29.91,ENE,57,0.0,1.0,68,0.00,,---,1.59,VWS V14.01,2013-10-07 20:43:00,
2013-10-07 16:48:00,66.9,55.2,29.91,NE,44,1.0,1.0,66,0.00,,---,1.59,VWS V14.01,2013-10-07 20:48:00,
2013-10-07 16:53:00,66.7,55.4,29.91,ENE,60,1.0,1.0,67,0.00,,---,1.59,VWS V14.01,2013-10-07 20:53:00,
2013-10-07 16:58:00,66.4,55.1,29.91,NE,49,0.0,0.0,67,0.00,,---,1.59,VWS V14.01,2013-10-07 20:58:00,
2013-10-07 17:03:00,66.2,54.5,29.91,NE,50,0.0,1.0,66,0.00,,---,1.59,VWS V14.01,2013-10-07 21:03:00,
2013-10-07 17:08:00,65.9,53.8,29.91,ENE,71,0.0,1.0,65,0.00,,---,1.59,VWS V14.01,2013-10-07 21:08:00,
2013-10-07 17:13:00,65.7,54.0,29.91,East,79,0.0,0.0,66,0.00,,---,1.59,VWS V14.01,2013-10-07 21:13:00,
2013-10-07 17:18:00,65.4,54.6,29.91,East,79,1.0,1.0,68,0.00,,---,1.59,VWS V14.01,2013-10-07 21:18:00,
2013-10-07 17:23:00,65.0,54.2,29.91,East,79,0.0,0.0,68,0.00,,---,1.59,VWS V14.01,2013-10-07 21:23:00,
2013-10-07 17:28:00,64.9,54.1,29.91,East,79,0.0,0.0,68,0.00,,---,1.59,VWS V14.01,2013-10-07 21:28:00,
2013-10-07 17:33:00,64.8,54.4,29.92,East,79,0.0,1.0,69,0.00,,---,1.59,VWS V14.01,2013-10-07 21:33:00,
2013-10-07 17:38:00,64.5,54.5,29.92,East,79,0.0,0.0,70,0.00,,---,1.59,VWS V14.01,2013-10-07 21:38:00,
2013-10-07 17:43:00,64.3,54.7,29.92,East,79,0.0,0.0,71,0.00,,---,1.59,VWS V14.01,2013-10-07 21:43:00,
2013-10-07 17:48:00,64.0,54.4,29.92,ENE,77,0.0,0.0,71,0.00,,---,1.59,VWS V14.01,2013-10-07 21:48:00,
2013-10-07 17:53:00,63.8,54.6,29.92,ENE,75,0.0,0.0,72,0.00,,---,1.59,VWS V14.01,2013-10-07 21:53:00,
2013-10-07 17:58:00,63.8,54.2,29.92,ENE,75,0.0,0.0,71,0.00,,---,1.59,VWS V14.01,2013-10-07 21:58:00,
2013-10-07 18:03:00,63.7,54.1,29.92,ENE,75,0.0,0.0,71,0.00,,---,1.59,VWS V14.01,2013-10-07 22:03:00,
2013-10-07 18:08:00,63.6,54.4,29.92,ENE,75,0.0,0.0,72,0.00,,---,1.59,VWS V14.01,2013-10-07 22:08:00,
2013-10-07 18:13:00,63.4,54.2,29.92,ENE,75,0.0,0.0,72,0.00,,---,1.59,VWS V14.01,2013-10-07 22:13:00,
2013-10-07 18:18:00,63.2,54.4,29.93,ENE,75,0.0,0.0,73,0.00,,---,1.59,VWS V14.01,2013-10-07 22:18:00,
2013-10-07 18:23:00,63.0,55.0,29.93,ENE,75,0.0,0.0,75,0.00,,---,1.59,VWS V14.01,2013-10-07 22:23:00,
2013-10-07 18:28:00,62.8,55.5,29.94,ENE,75,0.0,0.0,77,0.00,,---,1.59,VWS V14.01,2013-10-07 22:28:00,
2013-10-07 18:33:00,62.5,55.2,29.94,ENE,75,0.0,0.0,77,0.00,,---,1.59,VWS V14.01,2013-10-07 22:33:00,
2013-10-07 18:38:00,62.3,55.4,29.94,ENE,75,0.0,0.0,78,0.00,,---,1.59,VWS V14.01,2013-10-07 22:38:00,
2013-10-07 18:43:00,62.0,55.8,29.94,ENE,75,0.0,0.0,80,0.00,,---,1.59,VWS V14.01,2013-10-07 22:43:00,
2013-10-07 18:48:00,61.5,56.0,29.94,ENE,75,0.0,0.0,82,0.00,,---,1.59,VWS V14.01,2013-10-07 22:48:00,
2013-10-07 18:53:00,61.3,56.4,29.95,ENE,75,0.0,0.0,84,0.00,,---,1.59,VWS V14.01,2013-10-07 22:53:00,
2013-10-07 18:58:00,61.0,56.5,29.95,ENE,75,0.0,0.0,85,0.00,,---,1.59,VWS V14.01,2013-10-07 22:58:00,
2013-10-07 19:03:00,60.5,56.3,29.95,ENE,75,0.0,0.0,86,0.00,,---,1.59,VWS V14.01,2013-10-07 23:03:00,
2013-10-07 19:08:00,60.1,56.2,29.95,ENE,75,0.0,0.0,87,0.00,,---,1.59,VWS V14.01,2013-10-07 23:08:00,
2013-10-07 19:13:00,59.7,55.8,29.95,ENE,75,0.0,0.0,87,0.00,,---,1.59,VWS V14.01,2013-10-07 23:13:00,
2013-10-07 19:18:00,59.5,56.0,29.95,ENE,75,0.0,0.0,88,0.00,,---,1.59,VWS V14.01,2013-10-07 23:18:00,
2013-10-07 19:23:00,59.1,55.5,29.95,ENE,75,0.0,0.0,88,0.00,,---,1.59,VWS V14.01,2013-10-07 23:23:00,
2013-10-07 19:28:00,58.8,55.6,29.95,ENE,75,0.0,0.0,89,0.00,,---,1.59,VWS V14.01,2013-10-07 23:28:00,
2013-10-07 19:33:00,58.6,55.7,29.94,ENE,75,0.0,0.0,90,0.00,,---,1.59,VWS V14.01,2013-10-07 23:33:00,
2013-10-07 19:38:00,58.5,55.6,29.94,ENE,75,0.0,0.0,90,0.00,,---,1.59,VWS V14.01,2013-10-07 23:38:00,
2013-10-07 19:43:00,58.2,55.3,29.95,ENE,75,0.0,0.0,90,0.00,,---,1.59,VWS V14.01,2013-10-07 23:43:00,
2013-10-07 19:48:00,58.1,55.5,29.95,ENE,75,0.0,0.0,91,0.00,,---,1.59,VWS V14.01,2013-10-07 23:48:00,
2013-10-07 19:53:00,58.0,55.4,29.95,ENE,77,0.0,0.0,91,0.00,,---,1.59,VWS V14.01,2013-10-07 23:53:00,
2013-10-07 19:58:00,57.8,55.2,29.95,ENE,77,0.0,0.0,91,0.00,,---,1.59,VWS V14.01,2013-10-07 23:58:00,
2013-10-07 20:03:00,57.5,54.9,29.95,ENE,77,0.0,0.0,91,0.00,,---,1.59,VWS V14.01,2013-10-08 00:03:00,
2013-10-07 20:08:00,57.2,54.6,29.95,ENE,77,0.0,1.0,91,0.00,,---,1.59,VWS V14.01,2013-10-08 00:08:00,
2013-10-07 20:13:00,57.1,54.8,29.95,ENE,77,0.0,0.0,92,0.00,,---,1.59,VWS V14.01,2013-10-08 00:13:00,
2013-10-07 20:18:00,57.0,54.7,29.95,ENE,76,0.0,0.0,92,0.00,,---,1.59,VWS V14.01,2013-10-08 00:18:00,
2013-10-07 20:23:00,56.8,54.5,29.96,ENE,76,0.0,0.0,92,0.00,,---,1.59,VWS V14.01,2013-10-08 00:23:00,